Whaleyville, Maryland
Current Conditions -  °F | °C
As of 2:53 PM on Saturday 25 Oct 2014 (Local Time) from KOXB Reporting Station
Clear Clear  
Wind Chill: 68°   Ceiling: Unl
Heat Index: 68°   Visibility: 10mi
Dew Point: 46°   Wind: 8mph
Humidity: 45%   Direction: 220°SW
Pressure: 29.81"   Gusts: NA
Location:  38.4°N, 75.3°W
Report Text: KOXB 251853Z AUTO 22007KT 10SM CLR 20/08 A2981 RMK AO2 SLP095 T02000078 TSNO
Loading
Personal Weather Stations






























Interactive Weather Map
Tropical Storm Tracking
New forecast layout! Learn more

10-Day Weather Forecast

Advertisements
Track Severe Weather on mobile